Time;durP1;ratioP1;P1;durP2;ratioP2;P2;SDS_P1;SDS_P2;PMS_P1;PMS_P2;Temp;Humidity;BMP_temperature;BMP_pressure;BME280_temperature;BME280_humidity;BME280_pressure;Samples;Min_cycle;Max_cycle;Signal;HPM_P1;HPM_P2
2021/12/13 00:01:50;;;;;;;108.25;40.60;;;;;;;;;;4990560;28;20045;-66
2021/12/13 00:04:40;;;;;;;99.97;37.97;;;;;;;;;;4978073;28;20386;-66
2021/12/13 00:07:12;;;;;;;98.78;38.55;;;;;;;;;;4992999;28;20356;-65
2021/12/13 00:09:49;;;;;;;101.68;38.33;;;;;;;;;;5011005;28;20443;-65
2021/12/13 00:12:21;;;;;;;105.07;36.22;;;;;;;;;;5010263;28;20404;-67
2021/12/13 00:14:52;;;;;;;89.85;36.63;;;;;;;;;;4992209;28;20423;-64
2021/12/13 00:17:25;;;;;;;95.03;36.33;;;;;;;;;;4992544;28;20404;-65
2021/12/13 00:19:57;;;;;;;92.75;36.05;;;;;;;;;;5010282;28;20451;-65
2021/12/13 00:22:27;;;;;;;95.63;37.75;;;;;;;;;;4992838;28;20447;-64
2021/12/13 00:24:53;;;;;;;90.20;35.60;;;;;;;;;;4992219;28;20086;-65
2021/12/13 00:27:25;;;;;;;99.95;36.40;;;;;;;;;;4992521;28;20462;-66
2021/12/13 00:30:10;;;;;;;93.35;34.30;;;;;;;;;;4992345;28;20350;-66
2021/12/13 00:32:55;;;;;;;103.72;36.72;;;;;;;;;;4991498;28;20327;-65
2021/12/13 00:35:25;;;;;;;113.45;38.42;;;;;;;;;;5009671;28;20028;-65
2021/12/13 00:37:57;;;;;;;86.40;33.53;;;;;;;;;;4992248;28;20561;-65
2021/12/13 00:40:27;;;;;;;92.88;33.05;;;;;;;;;;5009450;28;20321;-65
2021/12/13 00:43:09;;;;;;;82.38;33.08;;;;;;;;;;4991936;28;20033;-65
2021/12/13 00:45:38;;;;;;;94.35;33.85;;;;;;;;;;5010963;28;20435;-64
2021/12/13 00:48:06;;;;;;;163.68;45.28;;;;;;;;;;5009905;28;20513;-65
2021/12/13 00:50:55;;;;;;;96.32;34.50;;;;;;;;;;4991636;28;20409;-65
2021/12/13 00:53:21;;;;;;;96.63;35.33;;;;;;;;;;4969013;28;20319;-65
2021/12/13 00:55:47;;;;;;;83.57;33.50;;;;;;;;;;5009215;28;20340;-65
2021/12/13 00:58:19;;;;;;;95.30;34.63;;;;;;;;;;4992015;28;20331;-65
2021/12/13 01:00:58;;;;;;;88.03;35.47;;;;;;;;;;5007176;28;20300;-65
2021/12/13 01:03:36;;;;;;;98.13;35.80;;;;;;;;;;4980542;28;20390;-65
2021/12/13 01:06:07;;;;;;;95.70;32.40;;;;;;;;;;4988988;28;20049;-66
2021/12/13 01:09:10;;;;;;;89.80;32.55;;;;;;;;;;4989843;28;20355;-65
2021/12/13 01:11:57;;;;;;;83.68;31.15;;;;;;;;;;4990460;28;20376;-65
2021/12/13 01:14:28;;;;;;;84.97;32.97;;;;;;;;;;4990374;28;20416;-65
2021/12/13 01:17:08;;;;;;;84.38;30.00;;;;;;;;;;4988045;28;20578;-65
2021/12/13 01:19:57;;;;;;;84.30;32.78;;;;;;;;;;4972855;28;20411;-64
2021/12/13 01:25:18;;;;;;;104.20;38.13;;;;;;;;;;4990814;28;20063;-65
2021/12/13 01:27:55;;;;;;;96.60;35.00;;;;;;;;;;4989129;28;20398;-65
2021/12/13 01:30:32;;;;;;;75.78;30.27;;;;;;;;;;4989278;28;20428;-65
2021/12/13 01:32:59;;;;;;;85.82;32.80;;;;;;;;;;4971750;28;20493;-66
2021/12/13 01:35:29;;;;;;;94.90;32.80;;;;;;;;;;4989039;28;20452;-65
2021/12/13 01:38:02;;;;;;;83.68;31.73;;;;;;;;;;4989739;28;20423;-65
2021/12/13 01:40:30;;;;;;;85.13;34.03;;;;;;;;;;4972354;28;20459;-65
2021/12/13 01:43:15;;;;;;;83.47;31.80;;;;;;;;;;4989315;28;20421;-66
2021/12/13 01:45:44;;;;;;;75.05;30.33;;;;;;;;;;4971074;28;20564;-65
2021/12/13 01:48:42;;;;;;;74.65;30.75;;;;;;;;;;4970977;28;20491;-65
2021/12/13 01:51:11;;;;;;;89.70;33.40;;;;;;;;;;4955869;28;20510;-65
2021/12/13 01:53:40;;;;;;;83.35;31.45;;;;;;;;;;4989083;28;20029;-65
2021/12/13 01:56:23;;;;;;;80.50;29.77;;;;;;;;;;4989243;28;20412;-65
2021/12/13 01:58:50;;;;;;;73.50;29.70;;;;;;;;;;4989327;28;20053;-66
2021/12/13 02:01:19;;;;;;;89.18;30.67;;;;;;;;;;4988946;28;20041;-65
2021/12/13 02:04:02;;;;;;;77.88;31.60;;;;;;;;;;4988814;28;20483;-67
2021/12/13 02:06:30;;;;;;;81.10;29.85;;;;;;;;;;4971686;28;20535;-65
2021/12/13 02:08:58;;;;;;;79.20;28.60;;;;;;;;;;4988555;28;20404;-66
2021/12/13 02:11:28;;;;;;;74.13;27.30;;;;;;;;;;4988967;28;20051;-65
2021/12/13 02:14:09;;;;;;;;;;;;;;;;;;4989101;28;20699;-65
2021/12/13 02:19:42;;;;;;;79.32;30.52;;;;;;;;;;4988753;28;20448;-65
2021/12/13 02:22:16;;;;;;;69.63;27.65;;;;;;;;;;4988861;28;20355;-65
2021/12/13 02:24:41;;;;;;;78.55;29.35;;;;;;;;;;4988923;28;20349;-65
2021/12/13 02:27:07;;;;;;;74.45;28.58;;;;;;;;;;4971094;28;20344;-65
2021/12/13 02:29:38;;;;;;;63.50;28.45;;;;;;;;;;4971345;28;20429;-65
2021/12/13 02:32:08;;;;;;;65.75;27.90;;;;;;;;;;4989091;28;20459;-65
2021/12/13 02:34:36;;;;;;;65.22;29.20;;;;;;;;;;4988336;28;20025;-65
2021/12/13 02:37:01;;;;;;;68.80;27.63;;;;;;;;;;4971960;28;20404;-65
2021/12/13 02:39:31;;;;;;;81.03;29.00;;;;;;;;;;4988538;28;20294;-65
2021/12/13 02:41:57;;;;;;;;;;;;;;;;;;4971446;28;20444;-65
2021/12/13 02:44:30;;;;;;;70.60;25.60;;;;;;;;;;4987823;28;20235;-68
2021/12/13 02:46:59;;;;;;;68.45;26.70;;;;;;;;;;4989134;28;20055;-64
2021/12/13 02:49:25;;;;;;;68.30;28.70;;;;;;;;;;4988475;28;20348;-64
2021/12/13 02:51:54;;;;;;;74.63;27.52;;;;;;;;;;4970918;28;20028;-65
2021/12/13 02:54:23;;;;;;;71.95;28.25;;;;;;;;;;4988531;28;20361;-65
2021/12/13 02:56:53;;;;;;;68.07;26.33;;;;;;;;;;4990432;28;20467;-65
2021/12/13 02:59:20;;;;;;;67.35;25.65;;;;;;;;;;4974322;28;20581;-65
2021/12/13 03:01:54;;;;;;;69.53;25.80;;;;;;;;;;4974065;28;20383;-64
2021/12/13 03:04:22;;;;;;;62.10;25.25;;;;;;;;;;4969656;28;20372;-65
2021/12/13 03:06:57;;;;;;;72.05;27.98;;;;;;;;;;4972093;28;20376;-65
2021/12/13 03:09:25;;;;;;;64.90;24.70;;;;;;;;;;4973013;28;20404;-65
2021/12/13 03:11:53;;;;;;;70.38;25.33;;;;;;;;;;4973121;28;20037;-66
2021/12/13 03:14:30;;;;;;;60.83;25.02;;;;;;;;;;4972061;28;20583;-65
2021/12/13 03:17:09;;;;;;;67.00;26.00;;;;;;;;;;4954681;28;20424;-65
2021/12/13 03:19:54;;;;;;;60.42;24.63;;;;;;;;;;4953979;28;20025;-65
2021/12/13 03:22:56;;;;;;;63.25;23.17;;;;;;;;;;4953880;28;20523;-65
2021/12/13 03:25:21;;;;;;;60.88;24.52;;;;;;;;;;4971765;28;20332;-65
2021/12/13 03:28:11;;;;;;;65.15;26.25;;;;;;;;;;4972112;28;20324;-65
2021/12/13 03:31:03;;;;;;;60.50;25.25;;;;;;;;;;4954157;28;20432;-64
2021/12/13 03:33:34;;;;;;;63.75;23.35;;;;;;;;;;4971921;28;20417;-64
2021/12/13 03:36:05;;;;;;;64.00;24.63;;;;;;;;;;4973404;28;20033;-65
2021/12/13 03:38:37;;;;;;;52.85;22.85;;;;;;;;;;4953715;28;20421;-65
2021/12/13 03:41:07;;;;;;;59.63;22.95;;;;;;;;;;4971494;28;20432;-65
2021/12/13 03:43:42;;;;;;;65.10;23.67;;;;;;;;;;4954259;28;20111;-65
2021/12/13 03:46:10;;;;;;;60.78;23.27;;;;;;;;;;4971153;28;20344;-66
2021/12/13 03:48:37;;;;;;;61.10;24.67;;;;;;;;;;4971902;28;20348;-65
2021/12/13 03:51:07;;;;;;;55.70;22.80;;;;;;;;;;4971597;28;20364;-65
2021/12/13 03:53:34;;;;;;;62.53;24.02;;;;;;;;;;4971427;28;20432;-66
2021/12/13 03:56:12;;;;;;;53.55;23.08;;;;;;;;;;4971341;28;20337;-65
2021/12/13 03:58:43;;;;;;;56.78;23.95;;;;;;;;;;4971447;28;20343;-65
2021/12/13 04:01:21;;;;;;;53.92;22.70;;;;;;;;;;4971173;28;20400;-66
2021/12/13 04:03:47;;;;;;;59.97;23.25;;;;;;;;;;4971684;28;20075;-65
2021/12/13 04:06:15;;;;;;;68.82;25.27;;;;;;;;;;4972838;28;20415;-65
2021/12/13 04:08:49;;;;;;;50.67;23.73;;;;;;;;;;4990479;28;20065;-65
2021/12/13 04:11:15;;;;;;;52.22;23.08;;;;;;;;;;4990953;28;20443;-66
2021/12/13 04:13:51;;;;;;;54.92;22.20;;;;;;;;;;4990437;28;20545;-64
2021/12/13 04:16:49;;;;;;;58.13;22.42;;;;;;;;;;4990385;28;20336;-64
2021/12/13 04:19:22;;;;;;;53.72;21.25;;;;;;;;;;4973641;28;20438;-64
2021/12/13 04:21:56;;;;;;;55.35;24.80;;;;;;;;;;4991722;28;20029;-64
2021/12/13 04:24:31;;;;;;;59.90;22.77;;;;;;;;;;4990823;28;20324;-65
2021/12/13 04:27:00;;;;;;;52.95;21.88;;;;;;;;;;4990697;28;20037;-66
2021/12/13 04:29:29;;;;;;;58.95;24.42;;;;;;;;;;4990497;28;20428;-65
2021/12/13 04:31:55;;;;;;;;;;;;;;;;;;4990773;28;20029;-64
2021/12/13 04:34:23;;;;;;;48.78;21.48;;;;;;;;;;4989365;28;19909;-65
2021/12/13 04:36:51;;;;;;;55.03;22.43;;;;;;;;;;4990315;28;20033;-64
2021/12/13 04:39:29;;;;;;;56.22;23.25;;;;;;;;;;4990510;28;20267;-64
2021/12/13 04:41:59;;;;;;;58.00;21.40;;;;;;;;;;4973565;28;20786;-64
2021/12/13 04:44:32;;;;;;;54.40;21.10;;;;;;;;;;4989863;28;20400;-65
2021/12/13 04:47:08;;;;;;;61.70;22.58;;;;;;;;;;4989857;28;20119;-65
2021/12/13 04:49:35;;;;;;;53.40;21.13;;;;;;;;;;4990392;28;20029;-65
2021/12/13 04:52:05;;;;;;;49.13;21.33;;;;;;;;;;4990281;28;20052;-64
2021/12/13 04:54:34;;;;;;;50.47;21.85;;;;;;;;;;4971887;28;20048;-65
2021/12/13 04:57:00;;;;;;;47.97;20.92;;;;;;;;;;4990249;28;20420;-64
2021/12/13 04:59:28;;;;;;;45.67;21.27;;;;;;;;;;4989666;28;20463;-65
2021/12/13 05:01:55;;;;;;;53.50;22.05;;;;;;;;;;4972616;28;20398;-64
2021/12/13 05:04:22;;;;;;;50.25;20.67;;;;;;;;;;4988941;28;20510;-65
2021/12/13 05:06:49;;;;;;;53.10;21.60;;;;;;;;;;4971682;28;20301;-65
2021/12/13 05:09:16;;;;;;;49.08;20.98;;;;;;;;;;4972283;28;20348;-65
2021/12/13 05:11:46;;;;;;;50.40;21.02;;;;;;;;;;4971613;28;20510;-65
2021/12/13 05:14:13;;;;;;;51.35;21.10;;;;;;;;;;4989941;28;20076;-65
2021/12/13 05:16:51;;;;;;;58.22;21.33;;;;;;;;;;4989249;28;20511;-65
2021/12/13 05:19:28;;;;;;;50.08;21.70;;;;;;;;;;4990215;28;20442;-64
2021/12/13 05:21:55;;;;;;;48.92;21.77;;;;;;;;;;4989449;28;20021;-64
2021/12/13 05:24:23;;;;;;;46.90;20.77;;;;;;;;;;4989544;28;20391;-65
2021/12/13 05:26:57;;;;;;;46.03;19.58;;;;;;;;;;4971770;28;20090;-64
2021/12/13 05:29:37;;;;;;;45.58;19.27;;;;;;;;;;4971921;28;20434;-65
2021/12/13 05:32:09;;;;;;;47.17;19.98;;;;;;;;;;4989178;28;20325;-65
2021/12/13 05:34:39;;;;;;;49.63;20.95;;;;;;;;;;4987778;28;20523;-65
2021/12/13 05:37:06;;;;;;;46.83;19.75;;;;;;;;;;4988879;28;20052;-65
2021/12/13 05:39:33;;;;;;;42.25;18.90;;;;;;;;;;4989476;28;20025;-65
2021/12/13 05:42:17;;;;;;;46.65;19.05;;;;;;;;;;4975383;28;20052;-64
2021/12/13 05:44:44;;;;;;;47.28;19.75;;;;;;;;;;4951681;28;20436;-65
2021/12/13 05:47:21;;;;;;;55.72;20.75;;;;;;;;;;4969277;28;20184;-65
2021/12/13 05:49:47;;;;;;;44.78;21.25;;;;;;;;;;4952103;28;20482;-64
2021/12/13 05:52:33;;;;;;;47.70;21.35;;;;;;;;;;4970052;28;20349;-64
2021/12/13 05:55:04;;;;;;;58.47;21.70;;;;;;;;;;4970218;28;20436;-65
2021/12/13 05:57:34;;;;;;;45.75;22.02;;;;;;;;;;4969393;28;20448;-65
2021/12/13 06:00:11;;;;;;;43.33;20.42;;;;;;;;;;4971021;28;20456;-67
2021/12/13 06:02:58;;;;;;;44.92;20.23;;;;;;;;;;4968986;28;20107;-65
2021/12/13 06:05:29;;;;;;;48.47;21.88;;;;;;;;;;4969476;28;20413;-65
2021/12/13 06:08:06;;;;;;;45.70;19.67;;;;;;;;;;4951171;28;20069;-65
2021/12/13 06:10:57;;;;;;;46.47;19.70;;;;;;;;;;4969186;28;20383;-65
2021/12/13 06:13:46;;;;;;;45.85;20.50;;;;;;;;;;4969680;28;20044;-65
2021/12/13 06:16:23;;;;;;;46.25;19.92;;;;;;;;;;4968991;28;20042;-66
2021/12/13 06:18:57;;;;;;;46.33;17.90;;;;;;;;;;4970268;28;20340;-65
2021/12/13 06:21:44;;;;;;;52.15;20.65;;;;;;;;;;4969400;28;20029;-65
2021/12/13 06:24:10;;;;;;;47.35;20.85;;;;;;;;;;4969356;28;20550;-66
2021/12/13 06:26:35;;;;;;;48.47;21.23;;;;;;;;;;4968958;28;20424;-65
2021/12/13 06:29:04;;;;;;;50.08;21.13;;;;;;;;;;4952036;28;20436;-65
2021/12/13 06:31:39;;;;;;;49.10;21.48;;;;;;;;;;4971566;28;20387;-65
2021/12/13 06:34:11;;;;;;;46.40;19.55;;;;;;;;;;4954597;28;20029;-65
2021/12/13 06:36:39;;;;;;;49.45;22.10;;;;;;;;;;4973752;28;20482;-67
2021/12/13 06:39:14;;;;;;;43.90;21.10;;;;;;;;;;4971537;28;20463;-66
2021/12/13 06:41:45;;;;;;;54.25;21.63;;;;;;;;;;4955364;28;20391;-65
2021/12/13 06:44:36;;;;;;;50.22;21.00;;;;;;;;;;4971383;28;20519;-65
2021/12/13 06:47:08;;;;;;;56.20;23.10;;;;;;;;;;4972874;28;20341;-65
2021/12/13 06:49:37;;;;;;;44.88;19.60;;;;;;;;;;4972778;28;20021;-66
2021/12/13 06:52:11;;;;;;;46.15;20.40;;;;;;;;;;4972294;28;20107;-65
2021/12/13 06:54:59;;;;;;;49.78;20.33;;;;;;;;;;4973541;28;20314;-65
2021/12/13 06:57:49;;;;;;;46.87;20.57;;;;;;;;;;4971946;28;20372;-65
2021/12/13 07:00:26;;;;;;;47.28;21.40;;;;;;;;;;4972248;28;20360;-66
2021/12/13 07:03:08;;;;;;;43.17;20.50;;;;;;;;;;4973238;28;20387;-65
2021/12/13 07:05:34;;;;;;;51.90;20.75;;;;;;;;;;4971851;28;20498;-65
2021/12/13 07:08:31;;;;;;;51.03;20.60;;;;;;;;;;4972271;28;20412;-65
2021/12/13 07:11:01;;;;;;;40.50;18.90;;;;;;;;;;4952925;28;20077;-65
2021/12/13 07:13:39;;;;;;;44.45;21.13;;;;;;;;;;4971908;28;20052;-65
2021/12/13 07:16:34;;;;;;;51.77;20.53;;;;;;;;;;4972366;28;20403;-65
2021/12/13 07:19:11;;;;;;;50.70;20.58;;;;;;;;;;4969187;28;20491;-67
2021/12/13 07:21:59;;;;;;;44.80;21.52;;;;;;;;;;4971617;28;20347;-66
2021/12/13 07:24:40;;;;;;;50.72;21.45;;;;;;;;;;4972059;28;20481;-65
2021/12/13 07:27:16;;;;;;;41.83;18.98;;;;;;;;;;4971781;28;20347;-65
2021/12/13 07:29:41;;;;;;;49.42;21.15;;;;;;;;;;4954025;28;20352;-66
2021/12/13 07:32:20;;;;;;;48.97;19.13;;;;;;;;;;4971948;28;20388;-65
2021/12/13 07:34:51;;;;;;;55.10;18.77;;;;;;;;;;4971848;28;20508;-65
2021/12/13 07:37:17;;;;;;;46.67;21.95;;;;;;;;;;4972181;28;20439;-65
2021/12/13 07:39:43;;;;;;;48.50;20.05;;;;;;;;;;4971773;28;20424;-66
2021/12/13 07:42:11;;;;;;;56.40;22.20;;;;;;;;;;4953465;28;20534;-65
2021/12/13 07:44:47;;;;;;;50.08;20.98;;;;;;;;;;4972956;28;20029;-67
2021/12/13 07:47:21;;;;;;;50.25;20.40;;;;;;;;;;4971433;28;20056;-65
2021/12/13 07:49:51;;;;;;;47.47;21.15;;;;;;;;;;4971697;28;20433;-65
2021/12/13 07:52:27;;;;;;;48.17;20.63;;;;;;;;;;4937485;28;20368;-65
2021/12/13 07:54:53;;;;;;;46.97;19.48;;;;;;;;;;4972980;28;20403;-66
2021/12/13 07:57:29;;;;;;;40.65;19.92;;;;;;;;;;4970794;28;20041;-65
2021/12/13 07:59:55;;;;;;;42.40;19.25;;;;;;;;;;4971368;28;20413;-65
2021/12/13 08:02:33;;;;;;;40.90;19.67;;;;;;;;;;4953066;28;20350;-66
2021/12/13 08:05:11;;;;;;;46.33;19.20;;;;;;;;;;4953370;28;20336;-66
2021/12/13 08:07:45;;;;;;;42.75;20.52;;;;;;;;;;4971041;28;20459;-66
2021/12/13 08:10:17;;;;;;;43.08;19.05;;;;;;;;;;4971119;28;20391;-65
2021/12/13 08:13:11;;;;;;;39.33;19.42;;;;;;;;;;4953159;28;20340;-66
2021/12/13 08:15:43;;;;;;;52.28;20.65;;;;;;;;;;4966297;28;20413;-67
2021/12/13 08:18:21;;;;;;;49.03;20.88;;;;;;;;;;4953449;28;20436;-65
2021/12/13 08:20:51;;;;;;;47.87;19.63;;;;;;;;;;4970999;28;20329;-65
2021/12/13 08:23:25;;;;;;;45.17;20.30;;;;;;;;;;4970574;28;20396;-65
2021/12/13 08:25:54;;;;;;;46.45;20.52;;;;;;;;;;4972103;28;20040;-65
2021/12/13 08:28:29;;;;;;;42.92;18.38;;;;;;;;;;4968746;28;20455;-65
2021/12/13 08:30:57;;;;;;;48.33;20.65;;;;;;;;;;4953040;28;20401;-65
2021/12/13 08:33:30;;;;;;;47.05;19.98;;;;;;;;;;4970641;28;20371;-66
2021/12/13 08:35:56;;;;;;;54.40;20.17;;;;;;;;;;4971078;28;20458;-65
2021/12/13 08:38:30;;;;;;;47.45;19.63;;;;;;;;;;4970615;28;20428;-65
2021/12/13 08:40:59;;;;;;;44.22;19.42;;;;;;;;;;4970230;28;20444;-65
2021/12/13 08:43:37;;;;;;;48.75;20.92;;;;;;;;;;4971094;28;20455;-66
2021/12/13 08:46:03;;;;;;;46.28;21.02;;;;;;;;;;4952544;28;20051;-65
2021/12/13 08:48:29;;;;;;;38.33;20.00;;;;;;;;;;4970528;28;20448;-65
2021/12/13 08:50:57;;;;;;;55.53;21.92;;;;;;;;;;4952530;28;20460;-65
2021/12/13 08:53:29;;;;;;;53.78;22.42;;;;;;;;;;4970653;28;20329;-65
2021/12/13 08:56:02;;;;;;;56.10;22.95;;;;;;;;;;4969692;28;20108;-65
2021/12/13 08:58:27;;;;;;;53.85;23.55;;;;;;;;;;4969795;28;20487;-65
2021/12/13 09:01:08;;;;;;;47.47;21.05;;;;;;;;;;4970173;28;20458;-65
2021/12/13 09:03:40;;;;;;;51.13;22.35;;;;;;;;;;4952184;28;20408;-65
2021/12/13 09:06:08;;;;;;;49.22;22.38;;;;;;;;;;4969703;28;20460;-65
2021/12/13 09:08:40;;;;;;;54.13;21.67;;;;;;;;;;4970430;28;20302;-65
2021/12/13 09:11:14;;;;;;;51.15;21.48;;;;;;;;;;4969914;28;20441;-65
2021/12/13 09:13:44;;;;;;;47.30;20.23;;;;;;;;;;4970066;28;20044;-65
2021/12/13 09:16:12;;;;;;;50.50;21.38;;;;;;;;;;4952881;28;20348;-65
2021/12/13 09:18:38;;;;;;;59.13;22.40;;;;;;;;;;4969843;28;20475;-65
2021/12/13 09:21:06;;;;;;;58.40;23.83;;;;;;;;;;4924476;28;20067;-65
2021/12/13 09:23:48;;;;;;;49.03;23.27;;;;;;;;;;4970061;28;20026;-66
2021/12/13 09:26:19;;;;;;;52.25;22.45;;;;;;;;;;4952426;28;20947;-65
2021/12/13 09:28:58;;;;;;;55.38;23.00;;;;;;;;;;4952276;28;20440;-65
2021/12/13 09:31:25;;;;;;;;;;;;;;;;;;4970383;28;20371;-65
2021/12/13 09:33:55;;;;;;;63.47;23.73;;;;;;;;;;4969335;28;20283;-65
2021/12/13 09:36:23;;;;;;;52.72;21.70;;;;;;;;;;4969667;28;20352;-65
2021/12/13 09:39:02;;;;;;;56.55;23.33;;;;;;;;;;4969702;28;20460;-65
2021/12/13 09:41:36;;;;;;;59.20;24.48;;;;;;;;;;4969635;28;20056;-65
2021/12/13 09:44:15;;;;;;;58.15;25.60;;;;;;;;;;4969826;28;20464;-65
2021/12/13 09:47:06;;;;;;;65.30;25.73;;;;;;;;;;4969254;28;20400;-65
2021/12/13 09:49:36;;;;;;;63.30;26.52;;;;;;;;;;4954849;28;20523;-66
2021/12/13 09:52:37;;;;;;;71.70;27.70;;;;;;;;;;4969766;28;20171;-65
2021/12/13 09:55:14;;;;;;;68.78;27.73;;;;;;;;;;4971093;28;20397;-65
2021/12/13 09:57:43;;;;;;;59.45;27.17;;;;;;;;;;4969708;28;20422;-65
2021/12/13 10:00:11;;;;;;;65.28;28.15;;;;;;;;;;4970022;28;20072;-65
2021/12/13 10:02:40;;;;;;;61.85;24.25;;;;;;;;;;4969905;28;20044;-65
2021/12/13 10:05:13;;;;;;;64.78;26.67;;;;;;;;;;4969720;28;20463;-65
2021/12/13 10:07:41;;;;;;;71.57;28.20;;;;;;;;;;4972884;28;20463;-66
2021/12/13 10:10:12;;;;;;;58.13;23.67;;;;;;;;;;4974727;28;20432;-65
2021/12/13 10:12:49;;;;;;;61.95;26.52;;;;;;;;;;4973024;28;20465;-66
2021/12/13 10:15:32;;;;;;;60.33;24.65;;;;;;;;;;4974918;28;20397;-65
2021/12/13 10:18:01;;;;;;;59.20;25.10;;;;;;;;;;4973271;28;20294;-65
2021/12/13 10:20:28;;;;;;;65.50;25.27;;;;;;;;;;4973009;28;20536;-65
2021/12/13 10:22:54;;;;;;;54.42;24.00;;;;;;;;;;4973918;28;20057;-65
2021/12/13 10:25:32;;;;;;;59.63;25.20;;;;;;;;;;4973115;28;20512;-65
2021/12/13 10:27:59;;;;;;;54.58;24.02;;;;;;;;;;4973186;28;20379;-65
2021/12/13 10:30:29;;;;;;;64.55;24.30;;;;;;;;;;4972750;28;20456;-65
2021/12/13 10:32:55;;;;;;;52.75;23.60;;;;;;;;;;4954971;28;20499;-65
2021/12/13 10:35:24;;;;;;;53.95;23.67;;;;;;;;;;4974362;28;20384;-64
2021/12/13 10:37:56;;;;;;;;;;;;;;;;;;4974460;28;20409;-65
2021/12/13 10:40:25;;;;;;;49.97;22.85;;;;;;;;;;4955434;28;19912;-67
2021/12/13 10:42:54;;;;;;;52.53;23.52;;;;;;;;;;4973417;28;20033;-65
2021/12/13 10:45:27;;;;;;;55.53;23.67;;;;;;;;;;4954661;28;20045;-65
2021/12/13 10:47:56;;;;;;;58.28;23.13;;;;;;;;;;4972651;28;20034;-65
2021/12/13 10:50:43;;;;;;;56.13;24.30;;;;;;;;;;4972777;28;20352;-66
2021/12/13 10:53:11;;;;;;;54.22;23.42;;;;;;;;;;4972420;28;20371;-65
2021/12/13 10:55:44;;;;;;;52.38;23.13;;;;;;;;;;4954670;28;20317;-65
2021/12/13 10:58:13;;;;;;;55.70;22.15;;;;;;;;;;4973092;28;20375;-65
2021/12/13 11:00:43;;;;;;;57.15;22.50;;;;;;;;;;4955115;28;20332;-65
2021/12/13 11:03:20;;;;;;;50.80;23.30;;;;;;;;;;4972472;28;20411;-65
2021/12/13 11:05:46;;;;;;;54.47;21.33;;;;;;;;;;4971948;28;20045;-65
2021/12/13 11:08:14;;;;;;;56.55;22.92;;;;;;;;;;4972295;28;20435;-65
2021/12/13 11:10:45;;;;;;;49.55;22.27;;;;;;;;;;4954414;28;20344;-69
2021/12/13 11:13:10;;;;;;;56.50;23.35;;;;;;;;;;4972251;28;20648;-65
2021/12/13 11:15:43;;;;;;;57.20;23.77;;;;;;;;;;4954237;28;20417;-65
2021/12/13 11:18:12;;;;;;;55.22;22.52;;;;;;;;;;4970688;28;20025;-66
2021/12/13 11:20:44;;;;;;;43.88;20.25;;;;;;;;;;4954956;28;20355;-66
2021/12/13 11:23:11;;;;;;;47.70;20.75;;;;;;;;;;4971726;28;20425;-66
2021/12/13 11:25:41;;;;;;;48.83;22.30;;;;;;;;;;4971514;28;20368;-65
2021/12/13 11:28:08;;;;;;;50.85;21.42;;;;;;;;;;4971370;28;20399;-66
2021/12/13 11:30:35;;;;;;;48.03;21.83;;;;;;;;;;4971400;28;20420;-65
2021/12/13 11:33:10;;;;;;;51.72;21.58;;;;;;;;;;4971492;28;20340;-66
2021/12/13 11:36:06;;;;;;;44.85;22.25;;;;;;;;;;4971546;28;20060;-65
2021/12/13 11:39:02;;;;;;;48.65;21.88;;;;;;;;;;4971459;28;20117;-65
2021/12/13 11:41:51;;;;;;;52.17;21.58;;;;;;;;;;4971067;28;20059;-65
2021/12/13 11:44:35;;;;;;;45.92;21.20;;;;;;;;;;4971717;28;20602;-65
2021/12/13 11:47:19;;;;;;;49.42;21.35;;;;;;;;;;4971062;28;20459;-65
2021/12/13 11:49:48;;;;;;;49.03;20.90;;;;;;;;;;4972088;28;20383;-65
2021/12/13 11:52:42;;;;;;;49.08;21.05;;;;;;;;;;4971596;28;20191;-66
2021/12/13 11:55:28;;;;;;;55.83;20.00;;;;;;;;;;4928818;28;20345;-66
2021/12/13 11:58:16;;;;;;;52.05;21.67;;;;;;;;;;4971233;28;20437;-65
2021/12/13 12:01:07;;;;;;;46.60;20.73;;;;;;;;;;4969638;28;20512;-65
2021/12/13 12:04:06;;;;;;;47.55;20.73;;;;;;;;;;4969735;28;20721;-65
2021/12/13 12:06:49;;;;;;;52.70;22.00;;;;;;;;;;4951759;28;20360;-65
2021/12/13 12:09:24;;;;;;;47.85;21.88;;;;;;;;;;4951213;28;20349;-65
2021/12/13 12:12:14;;;;;;;45.33;20.25;;;;;;;;;;4952459;28;20124;-65
2021/12/13 12:14:39;;;;;;;51.67;21.35;;;;;;;;;;4965927;28;20376;-65
2021/12/13 12:17:06;;;;;;;45.15;20.55;;;;;;;;;;4952030;28;20380;-66
2021/12/13 12:19:36;;;;;;;51.65;22.42;;;;;;;;;;4951400;28;20456;-65
2021/12/13 12:22:19;;;;;;;47.38;20.92;;;;;;;;;;4951308;28;20302;-66
2021/12/13 12:24:44;;;;;;;45.13;20.02;;;;;;;;;;4950018;28;20030;-65
2021/12/13 12:27:14;;;;;;;52.72;22.02;;;;;;;;;;4966496;28;20034;-66
2021/12/13 12:29:44;;;;;;;51.55;21.83;;;;;;;;;;4951320;28;20507;-65
2021/12/13 12:32:14;;;;;;;47.28;19.95;;;;;;;;;;4951136;28;20409;-65
2021/12/13 12:35:11;;;;;;;41.80;19.25;;;;;;;;;;4951762;28;20034;-65
2021/12/13 12:38:02;;;;;;;43.17;18.58;;;;;;;;;;4938891;28;20464;-65
2021/12/13 12:40:36;;;;;;;49.25;19.92;;;;;;;;;;4951181;28;20461;-65
2021/12/13 12:43:07;;;;;;;50.60;19.48;;;;;;;;;;4950462;28;20352;-65
2021/12/13 12:45:32;;;;;;;47.20;20.45;;;;;;;;;;4950560;28;20330;-65
2021/12/13 12:47:57;;;;;;;46.17;19.75;;;;;;;;;;4951066;28;20356;-65
2021/12/13 12:50:45;;;;;;;38.65;19.50;;;;;;;;;;4951373;28;20140;-66
2021/12/13 12:53:23;;;;;;;51.97;19.02;;;;;;;;;;4950890;28;20026;-66
2021/12/13 12:55:55;;;;;;;45.03;19.75;;;;;;;;;;4950694;28;20424;-65
2021/12/13 12:58:29;;;;;;;43.20;20.48;;;;;;;;;;4950483;28;20034;-65
2021/12/13 13:00:57;;;;;;;39.65;19.70;;;;;;;;;;4951832;28;20402;-65
2021/12/13 13:03:32;;;;;;;49.00;20.27;;;;;;;;;;4950204;28;20437;-66
2021/12/13 13:06:05;;;;;;;41.45;18.35;;;;;;;;;;4966088;28;20379;-66
2021/12/13 13:08:33;;;;;;;41.97;18.50;;;;;;;;;;4971844;28;20324;-66
2021/12/13 13:13:44;;;;;;;40.83;18.67;;;;;;;;;;4955752;28;20332;-66
2021/12/13 13:16:10;;;;;;;49.17;19.65;;;;;;;;;;4969717;28;20349;-65
2021/12/13 13:18:38;;;;;;;44.47;19.23;;;;;;;;;;4969496;28;20339;-65
2021/12/13 13:21:05;;;;;;;39.50;16.67;;;;;;;;;;4969859;28;20415;-65
2021/12/13 13:23:45;;;;;;;45.13;19.70;;;;;;;;;;4971719;28;20336;-66
2021/12/13 13:26:11;;;;;;;47.08;18.75;;;;;;;;;;4970035;28;20443;-65
2021/12/13 13:28:38;;;;;;;39.15;18.48;;;;;;;;;;4969669;28;20348;-65
2021/12/13 13:31:13;;;;;;;45.25;18.85;;;;;;;;;;4969682;28;20452;-66
2021/12/13 13:33:45;;;;;;;49.80;20.40;;;;;;;;;;4969732;28;20396;-66
2021/12/13 13:36:14;;;;;;;45.17;18.70;;;;;;;;;;4969566;28;20364;-65
2021/12/13 13:38:40;;;;;;;57.15;21.60;;;;;;;;;;4970094;28;20353;-65
2021/12/13 13:41:09;;;;;;;56.88;19.92;;;;;;;;;;4951619;28;20332;-65
2021/12/13 13:43:37;;;;;;;47.25;20.42;;;;;;;;;;4969973;28;20547;-65
2021/12/13 13:46:03;;;;;;;47.33;19.48;;;;;;;;;;4951482;28;20440;-67
2021/12/13 13:48:38;;;;;;;48.95;21.48;;;;;;;;;;4952019;28;20507;-65
2021/12/13 13:51:13;;;;;;;42.58;19.02;;;;;;;;;;4951963;28;20433;-66
2021/12/13 13:53:44;;;;;;;49.47;19.85;;;;;;;;;;4969620;28;20340;-65
2021/12/13 13:56:14;;;;;;;48.38;19.90;;;;;;;;;;4969413;28;20519;-66
2021/12/13 13:58:41;;;;;;;57.55;21.73;;;;;;;;;;4952301;28;20322;-66
2021/12/13 14:01:08;;;;;;;48.92;21.13;;;;;;;;;;4969644;28;20436;-66
2021/12/13 14:03:40;;;;;;;44.25;20.15;;;;;;;;;;4781874;28;10002184;-65
2021/12/13 14:06:08;;;;;;;53.38;21.25;;;;;;;;;;4970624;28;20601;-65
2021/12/13 14:08:34;;;;;;;50.72;21.05;;;;;;;;;;4951567;28;20394;-66
2021/12/13 14:11:01;;;;;;;52.55;21.88;;;;;;;;;;4969345;28;20387;-65
2021/12/13 14:13:33;;;;;;;52.10;21.02;;;;;;;;;;4969643;28;20391;-65
2021/12/13 14:15:58;;;;;;;47.97;20.08;;;;;;;;;;4968750;28;20340;-65
2021/12/13 14:18:27;;;;;;;49.60;21.23;;;;;;;;;;4951609;28;20403;-65
2021/12/13 14:20:58;;;;;;;53.40;20.80;;;;;;;;;;4968804;28;20337;-65
2021/12/13 14:23:30;;;;;;;52.42;19.83;;;;;;;;;;4951406;28;20440;-65
2021/12/13 14:26:05;;;;;;;49.42;20.00;;;;;;;;;;4969649;28;20348;-66
2021/12/13 14:28:34;;;;;;;44.80;18.45;;;;;;;;;;4951500;28;20518;-65
2021/12/13 14:31:05;;;;;;;47.65;20.50;;;;;;;;;;4969749;28;20408;-66
2021/12/13 14:33:39;;;;;;;55.83;21.15;;;;;;;;;;4969383;28;20103;-65
2021/12/13 14:36:12;;;;;;;50.83;21.55;;;;;;;;;;4969114;28;20360;-65
2021/12/13 14:38:40;;;;;;;52.83;21.60;;;;;;;;;;4970471;28;20455;-65
2021/12/13 14:41:09;;;;;;;50.13;21.45;;;;;;;;;;4969807;28;20418;-68
2021/12/13 14:43:39;;;;;;;49.97;21.77;;;;;;;;;;4951168;28;20418;-65
2021/12/13 14:46:09;;;;;;;;;;;;;;;;;;4951705;28;20532;-63
2021/12/13 14:48:34;;;;;;;96.07;36.88;;;;;;;;;;4968679;28;19913;-67
2021/12/13 14:51:04;;;;;;;104.35;39.97;;;;;;;;;;4968834;28;20579;-65
2021/12/13 14:53:32;;;;;;;101.80;39.72;;;;;;;;;;4954763;28;20498;-65
2021/12/13 14:56:03;;;;;;;110.70;43.33;;;;;;;;;;4954249;28;20499;-65
2021/12/13 14:58:39;;;;;;;101.93;42.75;;;;;;;;;;4970064;28;20029;-65
2021/12/13 15:01:08;;;;;;;82.47;36.60;;;;;;;;;;4971947;28;20479;-66
2021/12/13 15:03:37;;;;;;;91.88;36.45;;;;;;;;;;4972201;28;20363;-65